createdAt,value
2023-04-15T00:00:04.093Z,5.60
2023-04-15T00:03:02.542Z,5.50
2023-04-15T00:05:31.831Z,5.00
2023-04-15T00:08:00.313Z,4.90
2023-04-15T00:10:28.529Z,2.60
2023-04-15T00:12:57.008Z,4.70
2023-04-15T00:15:25.197Z,4.70
2023-04-15T00:17:53.231Z,5.10
2023-04-15T00:20:21.329Z,4.70
2023-04-15T00:22:49.396Z,4.80
2023-04-15T00:25:18.189Z,5.00
2023-04-15T00:27:46.262Z,4.70
2023-04-15T00:30:17.020Z,4.90
2023-04-15T00:32:45.321Z,5.40
2023-04-15T00:35:14.057Z,5.50
2023-04-15T00:37:43.649Z,5.40
2023-04-15T00:40:14.138Z,5.40
2023-04-15T00:42:42.367Z,5.60
2023-04-15T00:45:10.896Z,5.80
2023-04-15T00:47:39.569Z,5.20
2023-04-15T00:50:08.620Z,6.00
2023-04-15T00:52:37.342Z,6.60
2023-04-15T00:55:06.718Z,6.60
2023-04-15T00:57:35.707Z,7.10
2023-04-15T01:00:05.802Z,7.80
2023-04-15T01:02:34.822Z,7.00
2023-04-15T01:05:04.427Z,7.90
2023-04-15T01:07:32.492Z,8.00
2023-04-15T01:10:00.669Z,8.20
2023-04-15T01:12:28.840Z,8.40
2023-04-15T01:14:57.486Z,7.90
2023-04-15T01:17:25.822Z,8.50
2023-04-15T01:19:55.209Z,8.20
2023-04-15T01:22:24.566Z,8.10
2023-04-15T01:25:02.508Z,7.60
2023-04-15T01:27:32.421Z,7.40
2023-04-15T01:30:00.709Z,3.80
2023-04-15T01:32:29.508Z,6.70
2023-04-15T01:34:57.881Z,6.30
2023-04-15T01:37:26.446Z,3.10
2023-04-15T01:39:54.623Z,5.20
2023-04-15T01:42:24.480Z,5.50
2023-04-15T01:44:53.843Z,5.40
2023-04-15T01:47:22.682Z,4.80
2023-04-15T01:49:51.826Z,5.30
2023-04-15T01:52:19.795Z,5.00
2023-04-15T01:54:47.986Z,3.00
2023-04-15T01:57:16.040Z,5.10
2023-04-15T01:59:44.220Z,4.90
2023-04-15T02:02:12.882Z,5.20
2023-04-15T02:04:41.380Z,4.70
2023-04-15T02:07:09.660Z,5.30
2023-04-15T02:09:38.768Z,5.00
2023-04-15T02:12:09.805Z,4.90
2023-04-15T02:14:37.967Z,5.10
2023-04-15T02:17:08.802Z,5.90
2023-04-15T02:19:36.907Z,7.00
2023-04-15T02:22:04.944Z,6.60
2023-04-15T02:24:33.115Z,7.00
2023-04-15T02:27:02.419Z,6.30
2023-04-15T02:29:32.648Z,6.30
2023-04-15T02:32:02.310Z,6.50
2023-04-15T02:34:31.666Z,6.30
2023-04-15T02:36:59.688Z,6.10
2023-04-15T02:39:28.207Z,6.90
2023-04-15T02:41:56.990Z,3.80
2023-04-15T02:44:25.238Z,8.10
2023-04-15T02:46:55.999Z,8.10
2023-04-15T02:49:24.584Z,8.30
2023-04-15T02:51:52.753Z,8.80
2023-04-15T02:54:23.189Z,8.80
2023-04-15T02:56:52.367Z,8.20
2023-04-15T02:59:20.618Z,8.00
2023-04-15T03:01:48.836Z,6.30
2023-04-15T03:04:17.622Z,6.60
2023-04-15T03:06:46.500Z,6.70
2023-04-15T03:09:14.880Z,6.90
2023-04-15T03:11:43.524Z,7.00
2023-04-15T03:14:12.120Z,7.10
2023-04-15T03:16:43.095Z,7.30
2023-04-15T03:19:11.468Z,7.30
2023-04-15T03:21:40.051Z,6.90
2023-04-15T03:24:08.118Z,7.60
2023-04-15T03:26:36.218Z,4.10
2023-04-15T03:29:09.793Z,8.30
2023-04-15T03:31:37.962Z,8.40
2023-04-15T03:34:06.853Z,8.60
2023-04-15T03:36:35.019Z,5.20
2023-04-15T03:39:03.421Z,9.00
2023-04-15T03:41:33.069Z,9.10
2023-04-15T03:44:01.218Z,9.00
2023-04-15T03:46:29.494Z,8.50
2023-04-15T03:48:57.640Z,8.20
2023-04-15T03:51:26.743Z,7.80
2023-04-15T03:53:54.806Z,8.20
2023-04-15T03:56:22.984Z,8.70
2023-04-15T03:58:51.254Z,9.40
2023-04-15T04:01:19.595Z,5.40
2023-04-15T04:03:47.839Z,8.50
2023-04-15T04:06:17.014Z,8.80
2023-04-15T04:08:45.187Z,4.10
2023-04-15T04:11:13.554Z,8.60
2023-04-15T04:13:41.534Z,9.40
2023-04-15T04:16:09.682Z,8.90
2023-04-15T04:18:37.763Z,4.40
2023-04-15T04:21:06.147Z,10.30
2023-04-15T04:23:34.073Z,9.40
2023-04-15T04:26:02.689Z,9.70
2023-04-15T04:28:30.926Z,4.00
2023-04-15T04:30:59.104Z,4.90
2023-04-15T04:33:27.219Z,4.30
2023-04-15T04:35:55.183Z,9.00
2023-04-15T04:38:23.153Z,4.90
2023-04-15T04:40:51.333Z,9.10
2023-04-15T04:43:19.715Z,9.20
2023-04-15T04:45:47.813Z,9.20
2023-04-15T04:48:17.174Z,5.10
2023-04-15T04:50:45.627Z,8.60
2023-04-15T04:53:13.828Z,9.00
2023-04-15T04:55:42.618Z,9.40
2023-04-15T04:58:10.800Z,9.50
2023-04-15T05:00:39.167Z,9.10
2023-04-15T05:03:07.463Z,8.90
2023-04-15T05:05:37.152Z,9.10
2023-04-15T05:08:05.873Z,5.60
2023-04-15T05:10:33.879Z,9.40
2023-04-15T05:13:02.073Z,9.80
2023-04-15T05:15:30.098Z,9.60
2023-04-15T05:17:58.193Z,9.70
2023-04-15T05:20:26.611Z,10.50
2023-04-15T05:22:54.578Z,10.40
2023-04-15T05:25:26.241Z,4.60
2023-04-15T05:27:54.267Z,9.90
2023-04-15T05:30:22.416Z,9.70
2023-04-15T05:32:50.730Z,7.30
2023-04-15T05:35:19.180Z,12.40
2023-04-15T05:37:47.863Z,13.50
2023-04-15T05:40:18.959Z,15.00
2023-04-15T05:42:47.134Z,14.20
2023-04-15T05:45:18.202Z,14.40
2023-04-15T05:47:46.982Z,15.20
2023-04-15T05:50:15.868Z,15.00
2023-04-15T05:52:43.931Z,14.50
2023-04-15T05:55:12.523Z,13.40
2023-04-15T05:57:40.792Z,10.80
2023-04-15T06:00:10.222Z,11.30
2023-04-15T06:02:38.895Z,11.60
2023-04-15T06:05:10.055Z,11.30
2023-04-15T06:07:41.858Z,11.30
2023-04-15T06:10:10.604Z,9.90
2023-04-15T06:12:38.742Z,10.20
2023-04-15T06:15:10.007Z,10.00
2023-04-15T06:17:38.190Z,10.10
2023-04-15T06:20:08.615Z,11.20
2023-04-15T06:22:38.828Z,11.00
2023-04-15T06:25:08.295Z,10.60
2023-04-15T06:27:36.587Z,10.60
2023-04-15T06:30:05.349Z,10.70
2023-04-15T06:32:33.582Z,10.50
2023-04-15T06:35:01.729Z,10.10
2023-04-15T06:37:29.961Z,10.50
2023-04-15T06:39:58.310Z,10.50
2023-04-15T06:42:26.560Z,10.30
2023-04-15T06:44:55.126Z,9.70
2023-04-15T06:47:23.824Z,10.20
2023-04-15T06:49:52.191Z,10.50
2023-04-15T06:52:20.269Z,10.60
2023-04-15T06:54:48.334Z,10.70
2023-04-15T06:57:16.620Z,11.00
2023-04-15T06:59:44.839Z,10.80
2023-04-15T07:02:13.909Z,10.70
2023-04-15T07:04:42.233Z,10.20
2023-04-15T07:07:10.285Z,11.50
2023-04-15T07:09:38.608Z,12.00
2023-04-15T07:12:06.751Z,11.90
2023-04-15T07:14:34.889Z,12.50
2023-04-15T07:17:03.290Z,12.70
2023-04-15T07:19:31.836Z,12.50
2023-04-15T07:22:00.633Z,11.60
2023-04-15T07:24:28.736Z,10.00
2023-04-15T07:27:01.052Z,11.50
2023-04-15T07:29:29.471Z,8.90
2023-04-15T07:31:57.704Z,5.20
2023-04-15T07:34:30.723Z,5.10
2023-04-15T07:37:02.140Z,3.40
2023-04-15T07:39:31.168Z,2.50
2023-04-15T07:41:59.308Z,3.40
2023-04-15T07:47:19.353Z,9.60
2023-04-15T07:50:02.450Z,7.80
2023-04-15T07:52:30.765Z,7.20
2023-04-15T07:54:58.878Z,6.20
2023-04-15T07:57:26.946Z,6.00
2023-04-15T07:59:54.997Z,5.40
2023-04-15T08:02:23.170Z,4.80
2023-04-15T08:04:54.687Z,4.40
2023-04-15T08:07:23.144Z,3.50
2023-04-15T08:09:51.604Z,3.60
2023-04-15T08:12:19.778Z,3.10
2023-04-15T08:14:47.946Z,3.30
2023-04-15T08:17:16.160Z,2.80
2023-04-15T08:19:44.495Z,13.60
2023-04-15T08:22:17.677Z,5.20
2023-04-15T08:24:46.801Z,11.60
2023-04-15T08:27:15.288Z,21.30
2023-04-15T08:29:43.512Z,6.00
2023-04-15T08:32:11.605Z,2.90
2023-04-15T08:34:39.675Z,1.30
2023-04-15T08:37:08.364Z,1.70
2023-04-15T08:39:36.531Z,3.80
2023-04-15T08:42:07.381Z,11.10
2023-04-15T08:44:37.104Z,2.80
2023-04-15T08:47:08.012Z,2.70
2023-04-15T08:49:39.498Z,2.80
2023-04-15T08:52:07.550Z,2.60
2023-04-15T08:54:36.573Z,3.40
2023-04-15T08:57:05.022Z,2.10
2023-04-15T08:59:33.399Z,1.20
2023-04-15T09:02:01.852Z,1.60
2023-04-15T09:04:30.365Z,1.40
2023-04-15T09:06:58.676Z,1.80
2023-04-15T09:09:26.946Z,4.20
2023-04-15T09:11:55.251Z,1.00
2023-04-15T09:14:23.567Z,0.80
2023-04-15T09:16:59.289Z,0.90
2023-04-15T09:19:27.956Z,0.90
2023-04-15T09:21:58.853Z,0.90
2023-04-15T09:24:36.223Z,0.80
2023-04-15T09:29:32.790Z,0.80
2023-04-15T09:32:11.434Z,0.80
2023-04-15T09:34:39.806Z,0.60
2023-04-15T09:37:08.140Z,0.80
2023-04-15T09:39:53.014Z,0.80
2023-04-15T09:42:24.673Z,0.60
2023-04-15T09:44:56.109Z,0.90
2023-04-15T09:47:32.941Z,1.20
2023-04-15T09:50:01.480Z,0.80
2023-04-15T09:52:30.073Z,1.10
2023-04-15T09:54:58.977Z,1.00
2023-04-15T09:57:35.524Z,1.00
2023-04-15T10:00:08.950Z,1.00
2023-04-15T10:02:38.454Z,1.00
2023-04-15T10:05:07.355Z,1.30
2023-04-15T10:07:35.591Z,1.20
2023-04-15T10:10:05.502Z,1.10
2023-04-15T10:12:33.940Z,1.20
2023-04-15T10:15:07.825Z,1.20
2023-04-15T10:17:37.352Z,1.10
2023-04-15T10:20:07.264Z,0.90
2023-04-15T10:22:35.804Z,1.00
2023-04-15T10:25:04.584Z,1.00
2023-04-15T10:27:33.991Z,1.30
2023-04-15T10:30:04.002Z,1.20
2023-04-15T10:32:32.316Z,1.10
2023-04-15T10:35:00.454Z,1.00
2023-04-15T10:37:38.586Z,1.20
2023-04-15T10:40:39.497Z,1.00
2023-04-15T10:43:07.550Z,1.20
2023-04-15T10:45:39.521Z,1.00
2023-04-15T10:48:08.403Z,1.00
2023-04-15T10:50:37.216Z,1.00
2023-04-15T10:53:05.897Z,1.10
2023-04-15T10:55:34.484Z,1.00
2023-04-15T10:58:02.863Z,1.10
2023-04-15T11:00:32.147Z,0.80
2023-04-15T11:03:07.377Z,0.80
2023-04-15T11:05:42.095Z,0.90
2023-04-15T11:08:11.066Z,0.80
2023-04-15T11:10:39.083Z,1.10
2023-04-15T11:13:10.793Z,0.80
2023-04-15T11:15:45.044Z,0.80
2023-04-15T11:18:16.740Z,0.90
2023-04-15T11:20:46.574Z,0.80
2023-04-15T11:23:15.830Z,0.90
2023-04-15T11:25:44.470Z,1.10
2023-04-15T11:28:13.192Z,1.30
2023-04-15T11:30:42.013Z,1.10
2023-04-15T11:33:12.582Z,1.00
2023-04-15T11:35:44.086Z,1.00
2023-04-15T11:38:13.893Z,0.80
2023-04-15T11:40:45.342Z,0.80
2023-04-15T11:43:17.102Z,1.00
2023-04-15T11:45:53.043Z,1.30
2023-04-15T11:48:26.153Z,1.20
2023-04-15T11:50:58.929Z,1.20
2023-04-15T11:53:56.903Z,0.80
2023-04-15T11:58:57.181Z,0.90
2023-04-15T12:01:35.513Z,0.80
2023-04-15T12:04:06.590Z,0.90
2023-04-15T12:06:39.254Z,1.20
2023-04-15T12:09:07.527Z,1.30
2023-04-15T12:11:39.898Z,1.10
2023-04-15T12:14:07.967Z,3.90
2023-04-15T12:16:48.417Z,1.10
2023-04-15T12:19:39.754Z,1.20
2023-04-15T12:22:17.556Z,1.20
2023-04-15T12:24:49.100Z,1.40
2023-04-15T12:27:17.587Z,1.20
2023-04-15T12:29:46.066Z,0.90
2023-04-15T12:32:17.699Z,1.60
2023-04-15T12:34:51.016Z,0.90
2023-04-15T12:37:19.640Z,0.90
2023-04-15T12:39:49.267Z,1.30
2023-04-15T12:42:17.910Z,0.80
2023-04-15T12:44:46.322Z,1.40
2023-04-15T12:47:14.453Z,1.00
2023-04-15T12:49:42.540Z,1.30
2023-04-15T12:52:10.687Z,0.90
2023-04-15T12:54:39.371Z,0.90
2023-04-15T12:57:07.955Z,1.60
2023-04-15T12:59:36.687Z,1.20
2023-04-15T13:02:05.207Z,1.10
2023-04-15T13:04:33.484Z,0.90
2023-04-15T13:07:02.293Z,0.80
2023-04-15T13:09:31.114Z,0.50
2023-04-15T13:11:59.384Z,0.60
2023-04-15T13:14:27.418Z,1.00
2023-04-15T13:16:55.702Z,0.80
2023-04-15T13:19:23.816Z,0.60
2023-04-15T13:21:52.046Z,1.10
2023-04-15T13:24:20.425Z,1.00
2023-04-15T13:26:50.493Z,1.20
2023-04-15T13:29:19.022Z,1.40
2023-04-15T13:31:47.444Z,1.00
2023-04-15T13:34:15.731Z,1.00
2023-04-15T13:36:43.952Z,1.10
2023-04-15T13:39:12.243Z,1.00
2023-04-15T13:41:40.721Z,1.30
2023-04-15T13:44:08.766Z,1.10
2023-04-15T13:46:38.010Z,1.00
2023-04-15T13:49:06.194Z,0.90
2023-04-15T13:51:37.117Z,0.90
2023-04-15T13:54:05.828Z,0.80
2023-04-15T13:56:34.361Z,0.80
2023-04-15T13:59:03.468Z,0.80
2023-04-15T14:01:31.590Z,1.00
2023-04-15T14:03:59.989Z,0.80
2023-04-15T14:06:29.106Z,0.80
2023-04-15T14:08:57.179Z,0.60
2023-04-15T14:11:25.533Z,0.50
2023-04-15T14:13:53.773Z,0.50
2023-04-15T14:16:21.924Z,0.70
2023-04-15T14:18:50.060Z,0.70
2023-04-15T14:21:18.137Z,0.70
2023-04-15T14:23:46.089Z,0.70
2023-04-15T14:26:14.902Z,0.50
2023-04-15T14:28:45.160Z,0.70
2023-04-15T14:31:14.353Z,0.60
2023-04-15T14:33:42.971Z,0.70
2023-04-15T14:36:11.038Z,0.80
2023-04-15T14:38:40.235Z,0.80
2023-04-15T14:41:08.610Z,0.70
2023-04-15T14:43:37.202Z,0.60
2023-04-15T14:46:05.573Z,0.50
2023-04-15T14:48:33.910Z,0.70
2023-04-15T14:51:02.594Z,0.60
2023-04-15T14:53:37.962Z,0.80
2023-04-15T14:56:06.715Z,0.70
2023-04-15T14:58:34.972Z,0.80
2023-04-15T15:01:04.324Z,0.70
2023-04-15T15:03:32.760Z,0.70
2023-04-15T15:06:00.909Z,0.80
2023-04-15T15:08:30.060Z,0.60
2023-04-15T15:10:58.301Z,0.80
2023-04-15T15:13:26.450Z,0.80
2023-04-15T15:15:54.610Z,0.70
2023-04-15T15:18:22.921Z,0.90
2023-04-15T15:20:51.207Z,0.60
2023-04-15T15:23:19.277Z,0.70
2023-04-15T15:25:47.887Z,0.70
2023-04-15T15:28:16.335Z,0.70
2023-04-15T15:30:44.589Z,16.00
2023-04-15T15:33:12.684Z,1.80
2023-04-15T15:35:41.275Z,1.50
2023-04-15T15:38:11.490Z,0.90
2023-04-15T15:40:39.555Z,1.90
2023-04-15T15:43:07.942Z,1.90
2023-04-15T15:45:36.108Z,1.80
2023-04-15T15:48:04.700Z,1.50
2023-04-15T15:50:32.767Z,53.10
2023-04-15T15:53:00.918Z,2.80
2023-04-15T15:55:29.318Z,1.70
2023-04-15T15:57:57.592Z,3.60
2023-04-15T16:00:25.929Z,2.00
2023-04-15T16:05:28.980Z,1.60
2023-04-15T16:07:57.153Z,1.20
2023-04-15T16:10:25.451Z,2.30
2023-04-15T16:12:53.565Z,1.30
2023-04-15T16:15:27.092Z,2.30
2023-04-15T16:17:55.284Z,1.30
2023-04-15T16:20:23.651Z,16.00
2023-04-15T16:22:51.820Z,2.50
2023-04-15T16:25:20.108Z,1.40
2023-04-15T16:28:00.747Z,1.80
2023-04-15T16:30:29.561Z,1.30
2023-04-15T16:32:57.870Z,1.10
2023-04-15T16:35:26.229Z,1.30
2023-04-15T16:37:54.382Z,1.40
2023-04-15T16:40:22.447Z,1.20
2023-04-15T16:42:51.243Z,1.70
2023-04-15T16:45:19.406Z,2.10
2023-04-15T16:47:47.611Z,2.40
2023-04-15T16:50:15.963Z,3.30
2023-04-15T16:52:44.138Z,2.40
2023-04-15T16:55:12.228Z,2.40
2023-04-15T16:58:00.449Z,2.20
2023-04-15T17:00:28.741Z,2.60
2023-04-15T17:02:56.927Z,1.90
2023-04-15T17:05:27.633Z,2.40
2023-04-15T17:07:56.333Z,2.40
2023-04-15T17:10:24.403Z,2.40
2023-04-15T17:12:52.898Z,5.50
2023-04-15T17:15:21.198Z,6.60
2023-04-15T17:17:49.391Z,6.90
2023-04-15T17:20:20.613Z,6.60
2023-04-15T17:22:48.925Z,5.90
2023-04-15T17:25:17.085Z,7.80
2023-04-15T17:27:45.365Z,9.00
2023-04-15T17:30:13.550Z,8.20
2023-04-15T17:32:41.952Z,7.90
2023-04-15T17:35:10.550Z,7.90
2023-04-15T17:37:39.004Z,7.90
2023-04-15T17:40:08.759Z,7.10
2023-04-15T17:42:37.294Z,7.70
2023-04-15T17:45:06.299Z,6.30
2023-04-15T17:47:34.584Z,6.10
2023-04-15T17:50:02.956Z,5.70
2023-04-15T17:52:31.021Z,5.60
2023-04-15T17:54:59.065Z,5.70
2023-04-15T17:57:27.189Z,6.00
2023-04-15T17:59:55.391Z,5.90
2023-04-15T18:02:23.639Z,5.20
2023-04-15T18:04:52.063Z,4.70
2023-04-15T18:07:20.259Z,6.10
2023-04-15T18:09:50.563Z,5.20
2023-04-15T18:12:18.897Z,7.50
2023-04-15T18:14:47.237Z,5.40
2023-04-15T18:17:15.611Z,4.80
2023-04-15T18:19:43.710Z,4.30
2023-04-15T18:22:12.022Z,4.50
2023-04-15T18:24:40.142Z,4.10
2023-04-15T18:27:08.239Z,4.00
2023-04-15T18:29:36.702Z,4.20
2023-04-15T18:32:04.842Z,4.00
2023-04-15T18:34:32.880Z,3.60
2023-04-15T18:37:01.033Z,3.90
2023-04-15T18:39:29.335Z,4.50
2023-04-15T18:41:57.564Z,3.90
2023-04-15T18:44:25.757Z,3.80
2023-04-15T18:46:53.943Z,3.90
2023-04-15T18:49:21.989Z,3.90
2023-04-15T18:51:50.123Z,4.90
2023-04-15T18:54:18.118Z,5.60
2023-04-15T18:56:46.907Z,5.50
2023-04-15T18:59:28.526Z,4.40
2023-04-15T19:01:59.637Z,4.60
2023-04-15T19:04:30.850Z,4.60
2023-04-15T19:06:59.213Z,5.90
2023-04-15T19:09:29.010Z,5.50
2023-04-15T19:11:57.679Z,4.80
2023-04-15T19:14:25.961Z,5.10
2023-04-15T19:16:54.160Z,5.20
2023-04-15T19:19:22.429Z,5.20
2023-04-15T19:21:50.758Z,5.60
2023-04-15T19:24:19.343Z,5.40
2023-04-15T19:26:50.001Z,6.10
2023-04-15T19:29:18.628Z,5.50
2023-04-15T19:31:46.976Z,5.90
2023-04-15T19:34:15.458Z,5.90
2023-04-15T19:36:43.692Z,5.40
2023-04-15T19:39:11.731Z,6.10
2023-04-15T19:41:39.932Z,6.20
2023-04-15T19:44:08.528Z,6.40
2023-04-15T19:46:37.113Z,7.00
2023-04-15T19:49:05.874Z,7.40
2023-04-15T19:51:34.352Z,6.40
2023-04-15T19:54:02.664Z,6.10
2023-04-15T19:56:33.629Z,5.70
2023-04-15T19:59:03.589Z,5.90
2023-04-15T20:01:32.144Z,6.40
2023-04-15T20:04:00.612Z,6.40
2023-04-15T20:06:29.175Z,6.90
2023-04-15T20:08:58.003Z,7.00
2023-04-15T20:12:10.066Z,7.20
2023-04-15T20:14:17.884Z,7.90
2023-04-15T20:16:46.219Z,8.30
2023-04-15T20:19:14.823Z,8.60
2023-04-15T20:21:42.993Z,8.30
2023-04-15T20:24:11.348Z,8.20
2023-04-15T20:26:39.483Z,8.00
2023-04-15T20:29:08.069Z,8.30
2023-04-15T20:31:36.631Z,8.10
2023-04-15T20:34:04.978Z,8.40
2023-04-15T20:36:33.478Z,8.40
2023-04-15T20:39:01.740Z,8.50
2023-04-15T20:41:29.994Z,9.50
2023-04-15T20:44:01.472Z,8.60
2023-04-15T20:46:29.647Z,8.40
2023-04-15T20:48:57.749Z,7.80
2023-04-15T20:51:27.726Z,8.40
2023-04-15T20:53:56.339Z,8.10
2023-04-15T20:56:24.590Z,7.90
2023-04-15T20:58:52.756Z,7.40
2023-04-15T21:01:21.277Z,7.70
2023-04-15T21:03:49.542Z,7.90
2023-04-15T21:06:18.009Z,7.40
2023-04-15T21:08:46.169Z,7.90
2023-04-15T21:11:21.886Z,7.20
2023-04-15T21:13:56.972Z,7.60
2023-04-15T21:16:25.447Z,7.70
2023-04-15T21:18:54.073Z,7.40
2023-04-15T21:21:22.077Z,7.70
2023-04-15T21:23:50.143Z,7.50
2023-04-15T21:26:18.438Z,6.60
2023-04-15T21:28:46.584Z,7.80
2023-04-15T21:31:14.894Z,7.40
2023-04-15T21:33:43.147Z,7.60
2023-04-15T21:36:11.337Z,7.30
2023-04-15T21:38:39.491Z,8.20
2023-04-15T21:41:09.791Z,8.40
2023-04-15T21:43:37.889Z,9.50
2023-04-15T21:46:23.033Z,9.50
2023-04-15T21:48:53.436Z,8.00
2023-04-15T21:51:21.756Z,8.80
2023-04-15T21:53:49.802Z,7.80
2023-04-15T21:56:18.013Z,9.00
2023-04-15T21:58:46.278Z,9.10
2023-04-15T22:01:14.803Z,9.10
2023-04-15T22:03:43.177Z,9.10
2023-04-15T22:06:13.832Z,10.10
2023-04-15T22:08:55.106Z,10.10
2023-04-15T22:11:28.815Z,10.10
2023-04-15T22:13:57.646Z,10.50
2023-04-15T22:16:26.626Z,10.90
2023-04-15T22:18:55.775Z,9.80
2023-04-15T22:21:24.014Z,8.70
2023-04-15T22:24:34.083Z,6.50
2023-04-15T22:26:41.679Z,5.00
2023-04-15T22:29:09.987Z,3.60
2023-04-15T22:31:38.158Z,3.70
2023-04-15T22:34:06.287Z,4.00
2023-04-15T22:36:34.456Z,3.90
2023-04-15T22:39:02.581Z,4.60
2023-04-15T22:41:30.668Z,5.10
2023-04-15T22:43:58.703Z,5.10
2023-04-15T22:46:26.934Z,4.90
2023-04-15T22:48:55.541Z,5.00
2023-04-15T22:51:24.413Z,4.90
2023-04-15T22:53:52.480Z,5.10
2023-04-15T22:56:21.372Z,4.80
2023-04-15T22:58:49.750Z,5.10
2023-04-15T23:01:18.381Z,5.50
2023-04-15T23:03:57.136Z,5.70
2023-04-15T23:06:34.282Z,5.90
2023-04-15T23:09:02.165Z,2.60
2023-04-15T23:11:30.236Z,5.90
2023-04-15T23:13:58.305Z,6.10
2023-04-15T23:16:27.023Z,5.10
2023-04-15T23:18:55.250Z,6.00
2023-04-15T23:21:24.253Z,6.40
2023-04-15T23:23:54.535Z,5.30
2023-04-15T23:26:22.624Z,6.00
2023-04-15T23:28:51.010Z,6.00
2023-04-15T23:31:19.278Z,6.70
2023-04-15T23:33:47.423Z,6.30
2023-04-15T23:36:15.499Z,4.10
2023-04-15T23:38:43.565Z,6.50
2023-04-15T23:41:12.250Z,6.80
2023-04-15T23:43:40.635Z,4.90
2023-04-15T23:46:08.904Z,8.70
2023-04-15T23:48:36.976Z,8.80
2023-04-15T23:51:05.262Z,4.40
2023-04-15T23:53:33.502Z,8.60
2023-04-15T23:56:01.601Z,8.70
2023-04-15T23:58:29.670Z,8.30
